D/T METAR WX W/DIR W/SPE G/SPE TEMP DEWP
25/05/20 17:50 EGNJ 251650Z AUTO 23012KT 9999 NCD 24/01 Q1032 SW (230°) 13.8mph 24°C 1°C
25/05/20 17:20 EGNJ 251620Z 24009KT 210V280 CAVOK 23/02 Q1032 WSW (240°) 10.4mph 23°C 2°C
25/05/20 16:50 EGNJ 251550Z 22010KT CAVOK 24/03 Q1032 SW (220°) 11.5mph 24°C 3°C
25/05/20 16:20 EGNJ 251520Z 24012KT 200V280 CAVOK 24/03 Q1032 WSW (240°) 13.8mph 24°C 3°C
25/05/20 15:50 EGNJ 251450Z 24011KT CAVOK 23/01 Q1032 WSW (240°) 12.7mph 23°C 1°C
25/05/20 15:20 EGNJ 251420Z 23009KT 180V270 CAVOK 23/01 Q1032 SW (230°) 10.4mph 23°C 1°C
25/05/20 14:20 EGNJ 251320Z 25008KT 180V280 CAVOK 23/02 Q1033 WSW (250°) 9.2mph 23°C 2°C
25/05/20 13:50 EGNJ 251250Z 21012KT 160V240 9999 FEW045 22/03 Q1033 SSW (210°) 13.8mph 22°C 3°C
25/05/20 13:20 EGNJ 251220Z 23011KT 190V270 9999 FEW044 22/04 Q1033 SW (230°) 12.7mph 22°C 4°C
25/05/20 12:50 EGNJ 251150Z 21010KT 180V240 9999 FEW042 21/06 Q1033 SSW (210°) 11.5mph 21°C 6°C
25/05/20 12:20 EGNJ 251120Z 20011KT 120V230 9999 FEW040 20/07 Q1034 SSW (200°) 12.7mph 20°C 7°C
25/05/20 11:50 EGNJ 251050Z 21008KT 180V260 9999 FEW040 20/08 Q1034 SSW (210°) 9.2mph 20°C 8°C
25/05/20 11:20 EGNJ 251020Z 19009KT 150V210 9999 FEW034 20/09 Q1034 S (190°) 10.4mph 20°C 9°C
25/05/20 10:20 EGNJ 250920Z 17005KT 110V200 9999 FEW032 18/10 Q1034 S (170°) 5.8mph 18°C 10°C
25/05/20 09:20 EGNJ 250820Z VRB03KT CAVOK 16/10 Q1035 N (0°) 3.5mph 16°C 10°C
25/05/20 08:50 EGNJ 250750Z 22004KT 150V320 CAVOK 16/10 Q1035 SW (220°) 4.6mph 16°C 10°C
25/05/20 08:20 EGNJ 250720Z 23005KT CAVOK 14/10 Q1035 SW (230°) 5.8mph 14°C 10°C
25/05/20 07:50 EGNJ 250650Z 23006KT CAVOK 13/10 Q1035 SW (230°) 6.9mph 13°C 10°C
25/05/20 07:20 EGNJ 250620Z AUTO 21008KT 9999 FEW033/// 12/10 Q1034 SSW (210°) 9.2mph 12°C 10°C
25/05/20 06:50 EGNJ 250550Z AUTO 21008KT 9999 NCD 11/10 Q1034 SSW (210°) 9.2mph 11°C 10°C
25/05/20 06:20 EGNJ 250520Z AUTO 20007KT 9999 NCD 11/09 Q1034 SSW (200°) 8.1mph 11°C 9°C
25/05/20 05:20 EGNJ 250420Z AUTO 20003KT 9999 NCD 08/07 Q1034 SSW (200°) 3.5mph 8°C 7°C
25/05/20 04:50 EGNJ 250350Z AUTO 18002KT 9999 NCD 07/06 Q1034 S (180°) 2.3mph 7°C 6°C
25/05/20 03:50 EGNJ 250250Z AUTO VRB02KT 9999 NCD 09/07 Q1034 N (0°) 2.3mph 9°C 7°C
25/05/20 03:20 EGNJ 250220Z AUTO 25005KT 9999 NCD 09/07 Q1034 WSW (250°) 5.8mph 9°C 7°C
25/05/20 02:50 EGNJ 250150Z AUTO 24003KT 9999 NCD 09/08 Q1034 WSW (240°) 3.5mph 9°C 8°C
25/05/20 02:20 EGNJ 250120Z AUTO 26003KT 9999 NCD 09/08 Q1033 W (260°) 3.5mph 9°C 8°C
25/05/20 01:20 EGNJ 250020Z AUTO 29004KT 9999 NCD 11/09 Q1033 WNW (290°) 4.6mph 11°C 9°C
25/05/20 00:50 EGNJ 242350Z AUTO 24005KT 9999 NCD 10/09 Q1033 WSW (240°) 5.8mph 10°C 9°C
25/05/20 00:20 EGNJ 242320Z AUTO 27004KT 9999 NCD 11/09 Q1033 W (270°) 4.6mph 11°C 9°C
24/05/20 23:20 EGNJ 242220Z AUTO 23005KT 9999 NCD 11/09 Q1033 SW (230°) 5.8mph 11°C 9°C
24/05/20 22:20 EGNJ 242120Z AUTO 23004KT 9999 NCD 13/09 Q1032 SW (230°) 4.6mph 13°C 9°C
24/05/20 21:50 EGNJ 242050Z AUTO 26007KT 9999 NCD 15/10 Q1032 W (260°) 8.1mph 15°C 10°C
24/05/20 20:50 EGNJ 241950Z AUTO VRB03KT 9999 NCD 16/10 Q1031 N (0°) 3.5mph 16°C 10°C
24/05/20 20:20 EGNJ 241920Z AUTO 28009KT 9999 NCD 17/10 Q1031 W (280°) 10.4mph 17°C 10°C
24/05/20 19:50 EGNJ 241850Z AUTO 27012KT 9999 NCD 17/10 Q1031 W (270°) 13.8mph 17°C 10°C
24/05/20 19:20 EGNJ 241820Z AUTO 29015KT 9999 NCD 18/10 Q1030 WNW (290°) 17.3mph 18°C 10°C
24/05/20 18:50 EGNJ 241750Z AUTO 28015KT 9999 FEW034/// 18/10 Q1030 W (280°) 17.3mph 18°C 10°C
24/05/20 18:20 EGNJ 241720Z AUTO 28014KT 9999 SCT031/// 18/10 Q1030 W (280°) 16.1mph 18°C 10°C
24/05/20 17:50 EGNJ 241650Z AUTO 27013KT 9999 BKN029/// 18/10 Q1030 W (270°) 15.0mph 18°C 10°C
24/05/20 17:20 EGNJ 241620Z AUTO 27015KT 9999 BKN027/// 17/10 Q1030 W (270°) 17.3mph 17°C 10°C
24/05/20 16:50 EGNJ 241550Z AUTO 28016KT 9999 BKN024/// 17/10 Q1030 W (280°) 18.4mph 17°C 10°C
24/05/20 16:20 EGNJ 241520Z AUTO 27014G24KT 9999 BKN024/// OVC029/// 17/10 Q1030 W (270°) 16.1mph 27.6mph 17°C 10°C
24/05/20 15:50 EGNJ 241450Z AUTO 28018KT 9999 BKN023/// 17/10 Q1030 W (280°) 20.7mph 17°C 10°C
24/05/20 15:20 EGNJ 241420Z AUTO 27019KT 9999 OVC025/// 17/10 Q1029 W (270°) 21.9mph 17°C 10°C
24/05/20 14:50 EGNJ 241350Z AUTO 26015KT 9999 BKN022/// OVC032/// 17/10 Q1029 W (260°) 17.3mph 17°C 10°C
24/05/20 14:20 EGNJ 241320Z AUTO 26019KT 9999 OVC021/// 17/11 Q1029 W (260°) 21.9mph 17°C 11°C
24/05/20 13:50 EGNJ 241250Z AUTO 26019KT 9999 BKN022/// 17/11 Q1029 W (260°) 21.9mph 17°C 11°C
24/05/20 13:20 EGNJ 241220Z AUTO 27019KT 9999 BKN021/// 16/11 Q1028 W (270°) 21.9mph 16°C 11°C
24/05/20 12:50 EGNJ 241150Z AUTO 27016KT 9999 BKN019/// OVC024/// 16/11 Q1028 W (270°) 18.4mph 16°C 11°C
24/05/20 12:20 EGNJ 241120Z AUTO 27019KT 9999 BKN020/// 16/10 Q1028 W (270°) 21.9mph 16°C 10°C
24/05/20 11:50 EGNJ 241050Z AUTO 25019KT 9999 BKN016/// OVC022/// 15/11 Q1027 WSW (250°) 21.9mph 15°C 11°C
24/05/20 11:20 EGNJ 241020Z AUTO 25018KT 9999 BKN017/// OVC024/// 15/11 Q1027 WSW (250°) 20.7mph 15°C 11°C
24/05/20 10:50 EGNJ 240950Z AUTO 25020KT 9999 OVC018/// 15/11 Q1026 WSW (250°) 23.0mph 15°C 11°C
24/05/20 10:20 EGNJ 240920Z AUTO 25019KT 9999 OVC018/// 15/11 Q1026 WSW (250°) 21.9mph 15°C 11°C
24/05/20 09:50 EGNJ 240850Z AUTO 26015G25KT 9999 BKN019/// OVC024/// 15/11 Q1026 W (260°) 17.3mph 28.8mph 15°C 11°C
24/05/20 09:20 EGNJ 240820Z AUTO 26016KT 9999 OVC019/// 15/10 Q1025 W (260°) 18.4mph 15°C 10°C
24/05/20 08:50 EGNJ 240750Z AUTO 26016G27KT 9999 OVC020/// 15/10 Q1025 W (260°) 18.4mph 31.1mph 15°C 10°C
24/05/20 08:20 EGNJ 240720Z AUTO 26015G26KT 9999 OVC021/// 15/10 Q1024 W (260°) 17.3mph 29.9mph 15°C 10°C
24/05/20 07:50 EGNJ 240650Z AUTO 26014KT 9999 OVC021/// 15/10 Q1024 W (260°) 16.1mph 15°C 10°C
24/05/20 07:20 EGNJ 240620Z AUTO 25014KT 9999 OVC020/// 14/10 Q1024 WSW (250°) 16.1mph 14°C 10°C
24/05/20 06:50 EGNJ 240550Z AUTO 25013KT 9999 OVC020/// 14/10 Q1023 WSW (250°) 15.0mph 14°C 10°C
24/05/20 06:20 EGNJ 240520Z AUTO 24016KT 9999 OVC019/// 14/10 Q1023 WSW (240°) 18.4mph 14°C 10°C
24/05/20 05:50 EGNJ 240450Z AUTO 23016KT 9999 BKN018/// OVC023/// 13/10 Q1022 SW (230°) 18.4mph 13°C 10°C
24/05/20 05:20 EGNJ 240420Z AUTO 23017KT 9999 BKN019/// OVC025/// 13/09 Q1022 SW (230°) 19.6mph 13°C 9°C
24/05/20 04:50 EGNJ 240350Z AUTO 22018KT 9999 BKN017/// OVC022/// 13/09 Q1022 SW (220°) 20.7mph 13°C 9°C
24/05/20 04:20 EGNJ 240320Z AUTO 22017KT 9999 OVC019/// 12/09 Q1022 SW (220°) 19.6mph 12°C 9°C
24/05/20 03:50 EGNJ 240250Z AUTO 22015KT 9999 BKN019/// OVC042/// 13/08 Q1022 SW (220°) 17.3mph 13°C 8°C
24/05/20 02:50 EGNJ 240150Z AUTO 22013KT 9999 BKN025/// 12/07 Q1022 SW (220°) 15.0mph 12°C 7°C
24/05/20 02:20 EGNJ 240120Z AUTO 22014KT 9999 BKN030/// BKN035/// BKN043/// 12/07 Q1021 SW (220°) 16.1mph 12°C 7°C
24/05/20 01:50 EGNJ 240050Z AUTO 24017KT 9999 BKN032/// 13/07 Q1021 WSW (240°) 19.6mph 13°C 7°C
24/05/20 01:20 EGNJ 240020Z AUTO 23016KT 9999 BKN030/// OVC036/// 13/07 Q1021 SW (230°) 18.4mph 13°C 7°C
24/05/20 00:50 EGNJ 232350Z AUTO 23017KT 9999 BKN032/// BKN037/// 13/06 Q1021 SW (230°) 19.6mph 13°C 6°C
24/05/20 00:20 EGNJ 232320Z AUTO 23017KT 9999 SCT032/// 13/06 Q1021 SW (230°) 19.6mph 13°C 6°C
23/05/20 23:20 EGNJ 232220Z AUTO 24012KT 9999 SCT038/// 14/05 Q1021 WSW (240°) 13.8mph 14°C 5°C
23/05/20 22:50 EGNJ 232150Z AUTO 25013KT 9999 SCT032/// BKN038/// 14/05 Q1021 WSW (250°) 15.0mph 14°C 5°C
23/05/20 22:20 EGNJ 232120Z AUTO 25015KT 9999 SCT038/// SCT045/// 14/05 Q1021 WSW (250°) 17.3mph 14°C 5°C
23/05/20 21:50 EGNJ 232050Z AUTO 26016KT 9999 FEW036/// 14/04 Q1020 W (260°) 18.4mph 14°C 4°C
23/05/20 20:50 EGNJ 231950Z AUTO 25010KT 9999 FEW033/// SCT038/// BKN046/// 15/06 Q1020 WSW (250°) 11.5mph 15°C 6°C
23/05/20 20:20 EGNJ 231920Z AUTO 24016KT 9999 FEW032/// SCT041/// BKN049/// 15/06 Q1020 WSW (240°) 18.4mph 15°C 6°C
23/05/20 19:50 EGNJ 231850Z AUTO 24018KT 9999 SCT032/// BKN047/// 15/06 Q1019 WSW (240°) 20.7mph 15°C 6°C
23/05/20 19:20 EGNJ 231820Z AUTO 23017KT 9999 FEW033/// 15/06 Q1019 SW (230°) 19.6mph 15°C 6°C
23/05/20 18:20 EGNJ 231720Z AUTO 25017KT 9999 FEW036/// 16/05 Q1018 WSW (250°) 19.6mph 16°C 5°C
23/05/20 17:50 EGNJ 231650Z AUTO 24023G34KT 9999 FEW049/// 16/05 Q1018 WSW (240°) 26.5mph 39.1mph 16°C 5°C
23/05/20 17:20 EGNJ 231620Z AUTO 25023KT 9999 NCD 17/03 Q1018 WSW (250°) 26.5mph 17°C 3°C
23/05/20 16:50 EGNJ 231550Z AUTO 25024KT 9999 FEW047/// 17/04 Q1017 WSW (250°) 27.6mph 17°C 4°C
23/05/20 16:20 EGNJ 231520Z AUTO 24023KT 9999 BKN047/// 17/05 Q1017 WSW (240°) 26.5mph 17°C 5°C
23/05/20 15:50 EGNJ 231450Z AUTO 25021G32KT 9999 BKN046/// 17/04 Q1017 WSW (250°) 24.2mph 36.8mph 17°C 4°C
23/05/20 15:20 EGNJ 231420Z AUTO 25022G32KT 9999 FEW047/// 17/05 Q1016 WSW (250°) 25.3mph 36.8mph 17°C 5°C
23/05/20 14:50 EGNJ 231350Z AUTO 26020G33KT 9999 NCD 16/04 Q1016 W (260°) 23.0mph 38.0mph 16°C 4°C
23/05/20 14:20 EGNJ 231320Z AUTO 27020KT 9999 FEW033/// 15/04 Q1016 W (270°) 23.0mph 15°C 4°C
23/05/20 13:50 EGNJ 231250Z AUTO 24027KT 9999 NCD 18/03 Q1015 WSW (240°) 31.1mph 18°C 3°C
23/05/20 13:20 EGNJ 231220Z AUTO 24029KT 9999 NCD 18/03 Q1015 WSW (240°) 33.4mph 18°C 3°C
23/05/20 12:50 EGNJ 231150Z AUTO 24025KT 9999 NCD 17/03 Q1015 WSW (240°) 28.8mph 17°C 3°C
23/05/20 12:20 EGNJ 231120Z AUTO 24027KT 9999 NCD 17/04 Q1015 WSW (240°) 31.1mph 17°C 4°C
23/05/20 11:50 EGNJ 231050Z AUTO 24024KT 9999 FEW043/// 17/03 Q1015 RERA WSW (240°) 27.6mph 17°C 3°C